x

Buzzards Bay, Ma (buzm3) Weather Station

10:00 - Sat 27th May 2017 All times are EDT. -4 hours from GMT.

  • Wind
    8mph, 8mph gusts
  • Air Temp 55°f
  • Sea Pressure 1011.7mb
  • Buzzards Bay, Ma
  • Buzzards Bay, Ma

More Historic Weather Station data

Upgrade to MSW Pro to gain access to the past 30 days of data for over 8000 Wavebouys and Weather Stations around the globe.

Join Pro

Comparision Forecast

View Surf forecast
   
sam. 05/27 10:00 8 8 mph 1011.7mb 55f
9:00 7 7 mph 1011.5mb 55f
8:00 8 9 mph 1010.9mb 55f
7:00 11 13 mph 1010.3mb 54f
6:00 9 10 mph 1009.8mb 54f
5:00 14 15 mph 1009mb 54f
4:00 10 10 mph 1008.9mb 54f
3:00 6 6 mph 1008.5mb 54f
2:00 8 9 mph 1008.4mb 54f
1:00 11 14 mph 1007.6mb 55f
12:00 17 18 mph 1007.1mb 58f
ven. 05/26 11:00 16 17 mph 1006.6mb 57f
10:00 14 15 mph 1006.4mb 56f
9:00 9 9 mph 1005.7mb 55f
8:00 11 11 mph 1004.9mb 55f
7:00 11 11 mph 1004.3mb 55f
6:00 13 14 mph 1003.7mb 56f
5:00 6 6 mph 1003.3mb 55f
4:00 8 8 mph 1002.8mb 55f
3:00 11 13 mph 1002.5mb 55f
2:00 17 18 mph 1002.1mb 55f
1:00 16 17 mph 1001.4mb 53f
12:00 20 22 mph 1000.8mb 53f
11:00 24 26 mph 999.8mb 52f
10:00 22 23 mph 998.7mb 51f
9:00 17 20 mph 998.1mb 52f
8:00 16 18 mph 997.3mb 54f
7:00 20 21 mph 997.6mb 54f
6:00 16 16 mph 997.7mb 54f
5:00 13 13 mph 998mb 54f
4:00 3 6 mph 998.8mb 55f
3:00 9 13 mph 998.8mb 55f
2:00 15 15 mph 998.5mb 55f
1:00 3 5 mph 999.4mb 57f
12:00 13 17 mph 1000.6mb 58f
jeu. 05/25 11:00 20 21 mph 1000.2mb 55f
10:00 18 18 mph 1001.9mb 55f
9:00 16 17 mph 1003.1mb 55f
8:00 16 18 mph 1003.2mb 55f
7:00 16 18 mph 1003.7mb 55f
6:00 20 22 mph 1003.1mb 55f
5:00 18 20 mph 1004.2mb 55f
4:00 18 20 mph 1004.5mb 55f
3:00 24 25 mph 1004.9mb 54f
2:00 22 24 mph 1005.6mb 53f
1:00 20 22 mph 1006.5mb 53f
12:00 23 25 mph 1007.2mb 53f
11:00 26 30 mph 1007.5mb 54f
10:00 25 30 mph 1008.2mb 54f
9:00 25 28 mph 1008.4mb 55f
8:00 21 24 mph 1009.6mb 54f
7:00 20 23 mph 1009.7mb 54f
6:00 18 20 mph 1010mb 55f
5:00 20 22 mph 1010.1mb 56f
4:00 16 17 mph 1010.4mb 55f
3:00 15 16 mph 1010.2mb 55f
2:00 14 15 mph 1010.5mb 55f
1:00 11 13 mph 1011.4mb 55f
12:00 14 14 mph 1011.4mb 55f
mer. 05/24 11:00 14 15 mph 1011.1mb 56f
10:00 17 17 mph 1011mb 56f
9:00 13 14 mph 1010.8mb 57f
8:00 15 16 mph 1009.5mb 58f
7:00 13 14 mph 1008.8mb 57f
6:00 17 17 mph 1009.9mb 57f
5:00 20 21 mph 1008.9mb 58f
4:00 21 22 mph 1008.5mb 58f
3:00 23 25 mph 1007.7mb 56f
2:00 14 15 mph 1009.3mb 56f
1:00 18 20 mph 1008.6mb 56f
12:00 10 13 mph 1008.6mb 56f
11:00 8 8 mph 1008.2mb 56f
10:00 15 16 mph 1007.9mb 56f
9:00 16 17 mph 1007.9mb 56f
8:00 15 15 mph 1007.7mb 55f
7:00 8 8 mph 1008.2mb 55f
6:00 8 8 mph 1008.4mb 55f
5:00 6 7 mph 1008.4mb 55f
4:00 7 7 mph 1008.2mb 55f
3:00 6 6 mph 1008.7mb 55f
2:00 6 7 mph 1009.2mb 56f
1:00 10 11 mph 1009.9mb 55f
12:00 13 13 mph 1010.8mb 56f
mar. 05/23 11:00 8 8 mph 1011.2mb 55f
10:00 13 14 mph 1011.3mb 55f
9:00 14 16 mph 1011.1mb 55f
8:00 11 11 mph 1010.8mb 55f
7:00 14 14 mph 1010.7mb 55f
6:00 11 11 mph 1010.5mb 55f
5:00 13 13 mph 1010.3mb 56f